sensor_id;sensor_type;location;lat;lon;timestamp;P1;durP1;ratioP1;P2;durP2;ratioP2
14139;SDS011;7150;53.514;9.988;2024-03-06T00:00:25;10.13;;;6.23;;
14139;SDS011;7150;53.514;9.988;2024-03-06T00:02:50;7.93;;;6.20;;
14139;SDS011;7150;53.514;9.988;2024-03-06T00:05:16;10.90;;;6.93;;
14139;SDS011;7150;53.514;9.988;2024-03-06T00:07:42;10.37;;;5.50;;
14139;SDS011;7150;53.514;9.988;2024-03-06T00:10:07;8.63;;;5.97;;
14139;SDS011;7150;53.514;9.988;2024-03-06T00:12:33;9.63;;;6.17;;
14139;SDS011;7150;53.514;9.988;2024-03-06T00:14:59;9.03;;;5.83;;
14139;SDS011;7150;53.514;9.988;2024-03-06T00:17:25;7.30;;;4.87;;
14139;SDS011;7150;53.514;9.988;2024-03-06T00:19:51;8.37;;;6.20;;
14139;SDS011;7150;53.514;9.988;2024-03-06T00:22:17;8.50;;;5.20;;
14139;SDS011;7150;53.514;9.988;2024-03-06T00:24:43;9.40;;;5.50;;
14139;SDS011;7150;53.514;9.988;2024-03-06T00:27:08;8.97;;;5.83;;
14139;SDS011;7150;53.514;9.988;2024-03-06T00:29:35;7.77;;;5.30;;
14139;SDS011;7150;53.514;9.988;2024-03-06T00:32:03;8.30;;;5.23;;
14139;SDS011;7150;53.514;9.988;2024-03-06T00:34:28;9.60;;;6.47;;
14139;SDS011;7150;53.514;9.988;2024-03-06T00:36:54;9.00;;;5.33;;
14139;SDS011;7150;53.514;9.988;2024-03-06T00:39:20;9.57;;;6.20;;
14139;SDS011;7150;53.514;9.988;2024-03-06T00:41:45;9.67;;;6.43;;
14139;SDS011;7150;53.514;9.988;2024-03-06T00:44:11;9.93;;;5.80;;
14139;SDS011;7150;53.514;9.988;2024-03-06T00:46:36;9.07;;;5.67;;
14139;SDS011;7150;53.514;9.988;2024-03-06T00:49:03;9.77;;;6.73;;
14139;SDS011;7150;53.514;9.988;2024-03-06T00:51:28;9.50;;;6.00;;
14139;SDS011;7150;53.514;9.988;2024-03-06T00:53:54;9.17;;;6.10;;
14139;SDS011;7150;53.514;9.988;2024-03-06T00:56:19;9.17;;;5.93;;
14139;SDS011;7150;53.514;9.988;2024-03-06T00:58:45;9.80;;;5.30;;
14139;SDS011;7150;53.514;9.988;2024-03-06T01:01:10;10.70;;;6.47;;
14139;SDS011;7150;53.514;9.988;2024-03-06T01:03:37;10.17;;;5.80;;
14139;SDS011;7150;53.514;9.988;2024-03-06T01:06:02;8.70;;;5.93;;
14139;SDS011;7150;53.514;9.988;2024-03-06T01:08:28;8.93;;;5.70;;
14139;SDS011;7150;53.514;9.988;2024-03-06T01:10:55;8.40;;;5.70;;
14139;SDS011;7150;53.514;9.988;2024-03-06T01:13:21;8.50;;;5.90;;
14139;SDS011;7150;53.514;9.988;2024-03-06T01:15:46;8.60;;;5.90;;
14139;SDS011;7150;53.514;9.988;2024-03-06T01:18:11;8.40;;;5.40;;
14139;SDS011;7150;53.514;9.988;2024-03-06T01:20:37;8.77;;;5.60;;
14139;SDS011;7150;53.514;9.988;2024-03-06T01:23:03;7.90;;;5.23;;
14139;SDS011;7150;53.514;9.988;2024-03-06T01:25:29;8.17;;;5.40;;
14139;SDS011;7150;53.514;9.988;2024-03-06T01:27:54;7.43;;;4.83;;
14139;SDS011;7150;53.514;9.988;2024-03-06T01:30:20;7.10;;;5.03;;
14139;SDS011;7150;53.514;9.988;2024-03-06T01:32:45;7.90;;;5.57;;
14139;SDS011;7150;53.514;9.988;2024-03-06T01:35:11;7.87;;;5.07;;
14139;SDS011;7150;53.514;9.988;2024-03-06T01:37:36;6.23;;;4.67;;
14139;SDS011;7150;53.514;9.988;2024-03-06T01:40:02;7.47;;;5.13;;
14139;SDS011;7150;53.514;9.988;2024-03-06T01:42:29;6.53;;;4.90;;
14139;SDS011;7150;53.514;9.988;2024-03-06T01:44:55;7.00;;;4.73;;
14139;SDS011;7150;53.514;9.988;2024-03-06T01:47:20;7.43;;;4.67;;
14139;SDS011;7150;53.514;9.988;2024-03-06T01:49:46;7.07;;;4.47;;
14139;SDS011;7150;53.514;9.988;2024-03-06T01:52:13;7.97;;;4.93;;
14139;SDS011;7150;53.514;9.988;2024-03-06T01:54:41;7.83;;;4.67;;
14139;SDS011;7150;53.514;9.988;2024-03-06T01:57:07;7.17;;;4.47;;
14139;SDS011;7150;53.514;9.988;2024-03-06T01:59:35;6.00;;;4.30;;
14139;SDS011;7150;53.514;9.988;2024-03-06T02:02:00;8.40;;;4.73;;
14139;SDS011;7150;53.514;9.988;2024-03-06T02:04:26;6.77;;;4.67;;
14139;SDS011;7150;53.514;9.988;2024-03-06T02:06:53;7.53;;;4.87;;
14139;SDS011;7150;53.514;9.988;2024-03-06T02:09:19;7.13;;;4.97;;
14139;SDS011;7150;53.514;9.988;2024-03-06T02:11:45;6.93;;;4.77;;
14139;SDS011;7150;53.514;9.988;2024-03-06T02:14:10;7.07;;;4.60;;
14139;SDS011;7150;53.514;9.988;2024-03-06T02:16:37;6.33;;;4.77;;
14139;SDS011;7150;53.514;9.988;2024-03-06T02:19:04;7.07;;;4.57;;
14139;SDS011;7150;53.514;9.988;2024-03-06T02:21:29;5.60;;;4.57;;
14139;SDS011;7150;53.514;9.988;2024-03-06T02:23:55;7.83;;;4.67;;
14139;SDS011;7150;53.514;9.988;2024-03-06T02:26:21;6.17;;;4.50;;
14139;SDS011;7150;53.514;9.988;2024-03-06T02:28:50;6.80;;;4.63;;
14139;SDS011;7150;53.514;9.988;2024-03-06T02:31:17;7.40;;;5.00;;
14139;SDS011;7150;53.514;9.988;2024-03-06T02:33:44;6.47;;;5.00;;
14139;SDS011;7150;53.514;9.988;2024-03-06T02:36:13;6.53;;;4.60;;
14139;SDS011;7150;53.514;9.988;2024-03-06T02:38:42;7.27;;;4.00;;
14139;SDS011;7150;53.514;9.988;2024-03-06T02:41:08;5.97;;;4.27;;
14139;SDS011;7150;53.514;9.988;2024-03-06T02:43:33;5.90;;;4.60;;
14139;SDS011;7150;53.514;9.988;2024-03-06T02:45:59;5.67;;;4.10;;
14139;SDS011;7150;53.514;9.988;2024-03-06T02:48:25;7.80;;;4.73;;
14139;SDS011;7150;53.514;9.988;2024-03-06T02:50:50;6.23;;;4.20;;
14139;SDS011;7150;53.514;9.988;2024-03-06T02:53:16;7.63;;;5.00;;
14139;SDS011;7150;53.514;9.988;2024-03-06T02:55:41;6.87;;;5.07;;
14139;SDS011;7150;53.514;9.988;2024-03-06T02:58:07;5.53;;;4.67;;
14139;SDS011;7150;53.514;9.988;2024-03-06T03:00:32;6.93;;;4.73;;
14139;SDS011;7150;53.514;9.988;2024-03-06T03:02:58;7.33;;;4.33;;
14139;SDS011;7150;53.514;9.988;2024-03-06T03:05:24;7.47;;;4.33;;
14139;SDS011;7150;53.514;9.988;2024-03-06T03:07:49;6.13;;;3.90;;
14139;SDS011;7150;53.514;9.988;2024-03-06T03:10:15;7.60;;;4.73;;
14139;SDS011;7150;53.514;9.988;2024-03-06T03:12:41;5.87;;;3.97;;
14139;SDS011;7150;53.514;9.988;2024-03-06T03:15:07;10.50;;;4.47;;
14139;SDS011;7150;53.514;9.988;2024-03-06T03:17:34;6.17;;;4.57;;
14139;SDS011;7150;53.514;9.988;2024-03-06T03:20:00;5.57;;;4.03;;
14139;SDS011;7150;53.514;9.988;2024-03-06T03:22:34;5.77;;;4.50;;
14139;SDS011;7150;53.514;9.988;2024-03-06T03:25:07;6.63;;;4.40;;
14139;SDS011;7150;53.514;9.988;2024-03-06T03:27:33;8.13;;;4.70;;
14139;SDS011;7150;53.514;9.988;2024-03-06T03:29:59;7.73;;;4.67;;
14139;SDS011;7150;53.514;9.988;2024-03-06T03:32:24;6.33;;;4.33;;
14139;SDS011;7150;53.514;9.988;2024-03-06T03:34:50;6.07;;;4.40;;
14139;SDS011;7150;53.514;9.988;2024-03-06T03:37:15;5.73;;;4.33;;
14139;SDS011;7150;53.514;9.988;2024-03-06T03:39:43;7.73;;;4.57;;
14139;SDS011;7150;53.514;9.988;2024-03-06T03:42:09;5.60;;;3.90;;
14139;SDS011;7150;53.514;9.988;2024-03-06T03:44:34;6.03;;;4.50;;
14139;SDS011;7150;53.514;9.988;2024-03-06T03:46:59;6.30;;;3.97;;
14139;SDS011;7150;53.514;9.988;2024-03-06T03:49:25;6.20;;;3.70;;
14139;SDS011;7150;53.514;9.988;2024-03-06T03:51:51;6.60;;;4.27;;
14139;SDS011;7150;53.514;9.988;2024-03-06T03:54:16;5.23;;;3.87;;
14139;SDS011;7150;53.514;9.988;2024-03-06T03:56:42;4.80;;;3.60;;
14139;SDS011;7150;53.514;9.988;2024-03-06T03:59:08;5.70;;;4.00;;
14139;SDS011;7150;53.514;9.988;2024-03-06T04:01:33;5.17;;;4.00;;
14139;SDS011;7150;53.514;9.988;2024-03-06T04:03:59;6.27;;;4.27;;
14139;SDS011;7150;53.514;9.988;2024-03-06T04:06:24;6.90;;;3.90;;
14139;SDS011;7150;53.514;9.988;2024-03-06T04:08:50;7.17;;;4.10;;
14139;SDS011;7150;53.514;9.988;2024-03-06T04:11:15;4.83;;;3.73;;
14139;SDS011;7150;53.514;9.988;2024-03-06T04:13:41;5.30;;;3.50;;
14139;SDS011;7150;53.514;9.988;2024-03-06T04:16:06;7.70;;;3.80;;
14139;SDS011;7150;53.514;9.988;2024-03-06T04:18:32;5.70;;;3.23;;
14139;SDS011;7150;53.514;9.988;2024-03-06T04:21:04;6.03;;;3.53;;
14139;SDS011;7150;53.514;9.988;2024-03-06T04:23:30;6.30;;;3.70;;
14139;SDS011;7150;53.514;9.988;2024-03-06T04:25:56;5.67;;;3.73;;
14139;SDS011;7150;53.514;9.988;2024-03-06T04:28:22;7.57;;;4.07;;
14139;SDS011;7150;53.514;9.988;2024-03-06T04:30:47;6.83;;;3.60;;
14139;SDS011;7150;53.514;9.988;2024-03-06T04:33:12;6.83;;;4.10;;
14139;SDS011;7150;53.514;9.988;2024-03-06T04:35:40;6.10;;;4.13;;
14139;SDS011;7150;53.514;9.988;2024-03-06T04:38:05;6.87;;;3.90;;
14139;SDS011;7150;53.514;9.988;2024-03-06T04:40:31;5.23;;;3.50;;
14139;SDS011;7150;53.514;9.988;2024-03-06T04:42:57;5.73;;;3.73;;
14139;SDS011;7150;53.514;9.988;2024-03-06T04:45:22;7.33;;;3.97;;
14139;SDS011;7150;53.514;9.988;2024-03-06T04:47:48;4.80;;;3.30;;
14139;SDS011;7150;53.514;9.988;2024-03-06T04:50:14;4.90;;;3.53;;
14139;SDS011;7150;53.514;9.988;2024-03-06T04:52:39;5.47;;;3.67;;
14139;SDS011;7150;53.514;9.988;2024-03-06T04:55:06;4.87;;;3.47;;
14139;SDS011;7150;53.514;9.988;2024-03-06T04:57:32;5.47;;;3.30;;
14139;SDS011;7150;53.514;9.988;2024-03-06T04:59:59;4.93;;;3.30;;
14139;SDS011;7150;53.514;9.988;2024-03-06T05:02:25;4.63;;;3.23;;
14139;SDS011;7150;53.514;9.988;2024-03-06T05:04:53;4.70;;;3.47;;
14139;SDS011;7150;53.514;9.988;2024-03-06T05:10:40;4.97;;;3.57;;
14139;SDS011;7150;53.514;9.988;2024-03-06T05:13:06;5.07;;;3.83;;
14139;SDS011;7150;53.514;9.988;2024-03-06T05:15:31;5.17;;;3.57;;
14139;SDS011;7150;53.514;9.988;2024-03-06T05:17:57;5.13;;;3.30;;
14139;SDS011;7150;53.514;9.988;2024-03-06T05:20:23;4.77;;;3.53;;
14139;SDS011;7150;53.514;9.988;2024-03-06T05:22:49;4.47;;;3.53;;
14139;SDS011;7150;53.514;9.988;2024-03-06T05:25:14;5.33;;;3.67;;
14139;SDS011;7150;53.514;9.988;2024-03-06T05:27:39;6.23;;;4.17;;
14139;SDS011;7150;53.514;9.988;2024-03-06T05:30:05;4.40;;;3.57;;
14139;SDS011;7150;53.514;9.988;2024-03-06T05:32:31;5.97;;;3.60;;
14139;SDS011;7150;53.514;9.988;2024-03-06T05:34:56;4.03;;;3.43;;
14139;SDS011;7150;53.514;9.988;2024-03-06T05:37:23;5.50;;;3.70;;
14139;SDS011;7150;53.514;9.988;2024-03-06T05:39:48;6.17;;;4.10;;
14139;SDS011;7150;53.514;9.988;2024-03-06T05:42:14;5.27;;;3.43;;
14139;SDS011;7150;53.514;9.988;2024-03-06T05:44:39;5.77;;;3.70;;
14139;SDS011;7150;53.514;9.988;2024-03-06T05:47:05;5.07;;;3.27;;
14139;SDS011;7150;53.514;9.988;2024-03-06T05:49:31;6.70;;;4.07;;
14139;SDS011;7150;53.514;9.988;2024-03-06T05:51:57;4.90;;;3.37;;
14139;SDS011;7150;53.514;9.988;2024-03-06T05:54:23;5.87;;;3.80;;
14139;SDS011;7150;53.514;9.988;2024-03-06T05:56:49;5.23;;;3.57;;
14139;SDS011;7150;53.514;9.988;2024-03-06T05:59:16;7.07;;;3.90;;
14139;SDS011;7150;53.514;9.988;2024-03-06T06:01:42;5.33;;;3.73;;
14139;SDS011;7150;53.514;9.988;2024-03-06T06:04:09;6.53;;;3.70;;
14139;SDS011;7150;53.514;9.988;2024-03-06T06:06:35;5.87;;;3.87;;
14139;SDS011;7150;53.514;9.988;2024-03-06T06:09:00;5.57;;;4.17;;
14139;SDS011;7150;53.514;9.988;2024-03-06T06:11:29;5.73;;;3.83;;
14139;SDS011;7150;53.514;9.988;2024-03-06T06:13:55;6.30;;;3.80;;
14139;SDS011;7150;53.514;9.988;2024-03-06T06:16:20;7.17;;;3.87;;
14139;SDS011;7150;53.514;9.988;2024-03-06T06:18:46;6.13;;;3.67;;
14139;SDS011;7150;53.514;9.988;2024-03-06T06:21:11;5.07;;;3.80;;
14139;SDS011;7150;53.514;9.988;2024-03-06T06:23:37;6.83;;;3.80;;
14139;SDS011;7150;53.514;9.988;2024-03-06T06:26:02;5.50;;;3.97;;
14139;SDS011;7150;53.514;9.988;2024-03-06T06:28:28;5.57;;;4.13;;
14139;SDS011;7150;53.514;9.988;2024-03-06T06:30:53;5.03;;;3.83;;
14139;SDS011;7150;53.514;9.988;2024-03-06T06:33:19;5.83;;;3.90;;
14139;SDS011;7150;53.514;9.988;2024-03-06T06:35:46;4.03;;;3.23;;
14139;SDS011;7150;53.514;9.988;2024-03-06T06:38:11;6.13;;;4.27;;
14139;SDS011;7150;53.514;9.988;2024-03-06T06:40:37;6.17;;;3.60;;
14139;SDS011;7150;53.514;9.988;2024-03-06T06:43:02;5.37;;;3.63;;
14139;SDS011;7150;53.514;9.988;2024-03-06T06:45:28;5.63;;;3.90;;
14139;SDS011;7150;53.514;9.988;2024-03-06T06:47:53;5.50;;;3.73;;
14139;SDS011;7150;53.514;9.988;2024-03-06T06:50:19;6.87;;;4.20;;
14139;SDS011;7150;53.514;9.988;2024-03-06T06:52:47;7.17;;;4.47;;
14139;SDS011;7150;53.514;9.988;2024-03-06T06:55:13;6.13;;;3.93;;
14139;SDS011;7150;53.514;9.988;2024-03-06T06:57:39;6.63;;;3.53;;
14139;SDS011;7150;53.514;9.988;2024-03-06T07:00:04;8.00;;;4.37;;
14139;SDS011;7150;53.514;9.988;2024-03-06T07:02:37;5.83;;;4.00;;
14139;SDS011;7150;53.514;9.988;2024-03-06T07:05:04;4.43;;;3.30;;
14139;SDS011;7150;53.514;9.988;2024-03-06T07:07:30;5.60;;;3.93;;
14139;SDS011;7150;53.514;9.988;2024-03-06T07:09:56;6.13;;;3.43;;
14139;SDS011;7150;53.514;9.988;2024-03-06T07:12:21;4.40;;;3.37;;
14139;SDS011;7150;53.514;9.988;2024-03-06T07:14:47;6.00;;;3.70;;
14139;SDS011;7150;53.514;9.988;2024-03-06T07:17:12;5.60;;;3.83;;
14139;SDS011;7150;53.514;9.988;2024-03-06T07:19:38;4.70;;;3.57;;
14139;SDS011;7150;53.514;9.988;2024-03-06T07:22:04;5.43;;;3.93;;
14139;SDS011;7150;53.514;9.988;2024-03-06T07:24:30;4.83;;;3.77;;
14139;SDS011;7150;53.514;9.988;2024-03-06T07:26:55;5.10;;;3.40;;
14139;SDS011;7150;53.514;9.988;2024-03-06T07:29:21;5.10;;;3.97;;
14139;SDS011;7150;53.514;9.988;2024-03-06T07:31:46;6.33;;;3.47;;
14139;SDS011;7150;53.514;9.988;2024-03-06T07:34:12;5.03;;;3.60;;
14139;SDS011;7150;53.514;9.988;2024-03-06T07:36:39;4.57;;;3.80;;
14139;SDS011;7150;53.514;9.988;2024-03-06T07:39:05;6.20;;;4.40;;
14139;SDS011;7150;53.514;9.988;2024-03-06T07:41:30;5.37;;;3.97;;
14139;SDS011;7150;53.514;9.988;2024-03-06T07:43:59;5.50;;;4.00;;
14139;SDS011;7150;53.514;9.988;2024-03-06T07:46:25;6.00;;;4.10;;
14139;SDS011;7150;53.514;9.988;2024-03-06T07:48:50;8.13;;;4.23;;
14139;SDS011;7150;53.514;9.988;2024-03-06T07:51:16;6.17;;;4.10;;
14139;SDS011;7150;53.514;9.988;2024-03-06T07:53:42;7.40;;;3.77;;
14139;SDS011;7150;53.514;9.988;2024-03-06T07:56:09;5.90;;;4.07;;
14139;SDS011;7150;53.514;9.988;2024-03-06T07:58:38;5.10;;;3.87;;
14139;SDS011;7150;53.514;9.988;2024-03-06T08:01:04;5.17;;;3.50;;
14139;SDS011;7150;53.514;9.988;2024-03-06T08:03:32;5.23;;;4.20;;
14139;SDS011;7150;53.514;9.988;2024-03-06T08:05:58;5.60;;;3.90;;
14139;SDS011;7150;53.514;9.988;2024-03-06T08:08:24;7.57;;;4.23;;
14139;SDS011;7150;53.514;9.988;2024-03-06T08:10:49;5.30;;;4.00;;
14139;SDS011;7150;53.514;9.988;2024-03-06T08:13:15;6.47;;;4.20;;
14139;SDS011;7150;53.514;9.988;2024-03-06T08:15:41;5.43;;;3.90;;
14139;SDS011;7150;53.514;9.988;2024-03-06T08:18:09;7.77;;;4.43;;
14139;SDS011;7150;53.514;9.988;2024-03-06T08:20:34;5.33;;;3.70;;
14139;SDS011;7150;53.514;9.988;2024-03-06T08:23:00;5.53;;;3.87;;
14139;SDS011;7150;53.514;9.988;2024-03-06T08:25:25;4.77;;;3.63;;
14139;SDS011;7150;53.514;9.988;2024-03-06T08:27:51;5.20;;;3.70;;
14139;SDS011;7150;53.514;9.988;2024-03-06T08:30:16;7.27;;;3.83;;
14139;SDS011;7150;53.514;9.988;2024-03-06T08:32:42;5.57;;;3.70;;
14139;SDS011;7150;53.514;9.988;2024-03-06T08:35:09;4.73;;;3.43;;
14139;SDS011;7150;53.514;9.988;2024-03-06T08:37:36;5.20;;;3.60;;
14139;SDS011;7150;53.514;9.988;2024-03-06T08:40:02;4.97;;;3.90;;
14139;SDS011;7150;53.514;9.988;2024-03-06T08:42:28;3.97;;;3.53;;
14139;SDS011;7150;53.514;9.988;2024-03-06T08:44:53;4.73;;;3.83;;
14139;SDS011;7150;53.514;9.988;2024-03-06T08:47:19;5.53;;;3.93;;
14139;SDS011;7150;53.514;9.988;2024-03-06T08:49:45;7.60;;;4.10;;
14139;SDS011;7150;53.514;9.988;2024-03-06T08:52:10;5.50;;;4.20;;
14139;SDS011;7150;53.514;9.988;2024-03-06T08:54:36;5.70;;;4.27;;
14139;SDS011;7150;53.514;9.988;2024-03-06T08:57:02;6.10;;;4.30;;
14139;SDS011;7150;53.514;9.988;2024-03-06T08:59:29;6.83;;;4.87;;
14139;SDS011;7150;53.514;9.988;2024-03-06T09:01:54;7.87;;;4.83;;
14139;SDS011;7150;53.514;9.988;2024-03-06T09:04:23;6.10;;;4.47;;
14139;SDS011;7150;53.514;9.988;2024-03-06T09:06:49;6.67;;;4.63;;
14139;SDS011;7150;53.514;9.988;2024-03-06T09:09:14;6.27;;;4.50;;
14139;SDS011;7150;53.514;9.988;2024-03-06T09:11:43;5.43;;;4.27;;
14139;SDS011;7150;53.514;9.988;2024-03-06T09:14:08;7.40;;;5.00;;
14139;SDS011;7150;53.514;9.988;2024-03-06T09:16:35;5.73;;;4.60;;
14139;SDS011;7150;53.514;9.988;2024-03-06T09:19:00;7.27;;;4.97;;
14139;SDS011;7150;53.514;9.988;2024-03-06T09:21:27;5.63;;;4.63;;
14139;SDS011;7150;53.514;9.988;2024-03-06T09:23:53;6.20;;;3.90;;
14139;SDS011;7150;53.514;9.988;2024-03-06T09:26:18;5.80;;;4.00;;
14139;SDS011;7150;53.514;9.988;2024-03-06T09:28:45;7.50;;;4.57;;
14139;SDS011;7150;53.514;9.988;2024-03-06T09:31:11;6.33;;;4.07;;
14139;SDS011;7150;53.514;9.988;2024-03-06T09:33:38;5.53;;;4.07;;
14139;SDS011;7150;53.514;9.988;2024-03-06T09:36:04;7.00;;;4.93;;
14139;SDS011;7150;53.514;9.988;2024-03-06T09:38:30;4.67;;;3.77;;
14139;SDS011;7150;53.514;9.988;2024-03-06T09:40:56;5.30;;;3.87;;
14139;SDS011;7150;53.514;9.988;2024-03-06T09:43:21;8.00;;;4.97;;
14139;SDS011;7150;53.514;9.988;2024-03-06T09:45:48;8.30;;;4.80;;
14139;SDS011;7150;53.514;9.988;2024-03-06T09:48:15;7.93;;;5.30;;
14139;SDS011;7150;53.514;9.988;2024-03-06T09:50:45;7.63;;;5.33;;
14139;SDS011;7150;53.514;9.988;2024-03-06T09:53:15;6.33;;;4.40;;
14139;SDS011;7150;53.514;9.988;2024-03-06T09:55:41;8.50;;;5.07;;
14139;SDS011;7150;53.514;9.988;2024-03-06T09:58:07;7.00;;;4.77;;
14139;SDS011;7150;53.514;9.988;2024-03-06T10:00:36;7.23;;;4.63;;
14139;SDS011;7150;53.514;9.988;2024-03-06T10:03:02;6.60;;;4.80;;
14139;SDS011;7150;53.514;9.988;2024-03-06T10:05:30;7.17;;;4.73;;
14139;SDS011;7150;53.514;9.988;2024-03-06T10:07:58;8.67;;;5.30;;
14139;SDS011;7150;53.514;9.988;2024-03-06T10:10:25;7.80;;;5.30;;
14139;SDS011;7150;53.514;9.988;2024-03-06T10:12:51;8.20;;;5.63;;
14139;SDS011;7150;53.514;9.988;2024-03-06T10:15:17;7.27;;;5.00;;
14139;SDS011;7150;53.514;9.988;2024-03-06T10:17:43;6.57;;;4.90;;
14139;SDS011;7150;53.514;9.988;2024-03-06T10:20:20;8.60;;;5.57;;
14139;SDS011;7150;53.514;9.988;2024-03-06T10:22:50;8.77;;;5.40;;
14139;SDS011;7150;53.514;9.988;2024-03-06T10:25:20;7.33;;;4.90;;
14139;SDS011;7150;53.514;9.988;2024-03-06T10:27:47;8.23;;;5.47;;
14139;SDS011;7150;53.514;9.988;2024-03-06T10:30:39;9.40;;;5.77;;
14139;SDS011;7150;53.514;9.988;2024-03-06T10:33:09;7.47;;;5.43;;
14139;SDS011;7150;53.514;9.988;2024-03-06T10:35:35;10.33;;;5.27;;
14139;SDS011;7150;53.514;9.988;2024-03-06T10:38:03;8.67;;;5.50;;
14139;SDS011;7150;53.514;9.988;2024-03-06T10:40:33;8.37;;;5.13;;
14139;SDS011;7150;53.514;9.988;2024-03-06T10:43:00;8.80;;;5.97;;
14139;SDS011;7150;53.514;9.988;2024-03-06T10:48:25;9.13;;;5.60;;
14139;SDS011;7150;53.514;9.988;2024-03-06T10:50:53;11.07;;;6.50;;
14139;SDS011;7150;53.514;9.988;2024-03-06T10:53:20;8.77;;;5.93;;
14139;SDS011;7150;53.514;9.988;2024-03-06T10:55:48;9.93;;;5.83;;
14139;SDS011;7150;53.514;9.988;2024-03-06T10:58:14;9.17;;;6.33;;
14139;SDS011;7150;53.514;9.988;2024-03-06T11:00:42;8.17;;;5.90;;
14139;SDS011;7150;53.514;9.988;2024-03-06T11:03:13;8.73;;;5.90;;
14139;SDS011;7150;53.514;9.988;2024-03-06T11:05:43;9.13;;;5.60;;
14139;SDS011;7150;53.514;9.988;2024-03-06T11:08:12;7.80;;;5.50;;
14139;SDS011;7150;53.514;9.988;2024-03-06T11:10:40;7.33;;;5.47;;
14139;SDS011;7150;53.514;9.988;2024-03-06T11:13:22;7.73;;;5.33;;
14139;SDS011;7150;53.514;9.988;2024-03-06T11:15:50;7.90;;;5.20;;
14139;SDS011;7150;53.514;9.988;2024-03-06T11:23:28;6.80;;;5.00;;
14139;SDS011;7150;53.514;9.988;2024-03-06T11:33:13;8.47;;;5.47;;
14139;SDS011;7150;53.514;9.988;2024-03-06T11:35:41;7.13;;;5.47;;
14139;SDS011;7150;53.514;9.988;2024-03-06T11:38:09;7.83;;;5.57;;
14139;SDS011;7150;53.514;9.988;2024-03-06T11:40:42;6.43;;;4.73;;
14139;SDS011;7150;53.514;9.988;2024-03-06T11:43:24;9.37;;;5.70;;
14139;SDS011;7150;53.514;9.988;2024-03-06T11:45:51;5.53;;;4.53;;
14139;SDS011;7150;53.514;9.988;2024-03-06T11:48:17;8.23;;;5.87;;
14139;SDS011;7150;53.514;9.988;2024-03-06T11:50:46;11.77;;;5.80;;
14139;SDS011;7150;53.514;9.988;2024-03-06T11:53:12;7.93;;;5.60;;
14139;SDS011;7150;53.514;9.988;2024-03-06T11:55:39;9.50;;;6.10;;
14139;SDS011;7150;53.514;9.988;2024-03-06T11:58:04;7.43;;;5.60;;
14139;SDS011;7150;53.514;9.988;2024-03-06T12:00:32;9.63;;;6.50;;
14139;SDS011;7150;53.514;9.988;2024-03-06T12:02:58;6.60;;;5.27;;
14139;SDS011;7150;53.514;9.988;2024-03-06T12:05:24;7.53;;;5.30;;
14139;SDS011;7150;53.514;9.988;2024-03-06T12:07:50;9.67;;;5.80;;
14139;SDS011;7150;53.514;9.988;2024-03-06T12:10:16;10.07;;;6.00;;
14139;SDS011;7150;53.514;9.988;2024-03-06T12:12:42;8.47;;;5.30;;
14139;SDS011;7150;53.514;9.988;2024-03-06T12:15:09;8.93;;;5.57;;
14139;SDS011;7150;53.514;9.988;2024-03-06T12:17:46;6.80;;;4.87;;
14139;SDS011;7150;53.514;9.988;2024-03-06T12:20:14;10.80;;;5.33;;
14139;SDS011;7150;53.514;9.988;2024-03-06T12:22:50;8.33;;;5.23;;
14139;SDS011;7150;53.514;9.988;2024-03-06T12:25:19;8.90;;;5.60;;
14139;SDS011;7150;53.514;9.988;2024-03-06T12:27:49;7.57;;;5.00;;
14139;SDS011;7150;53.514;9.988;2024-03-06T12:30:21;7.43;;;4.83;;
14139;SDS011;7150;53.514;9.988;2024-03-06T12:32:57;7.30;;;5.23;;
14139;SDS011;7150;53.514;9.988;2024-03-06T12:35:29;7.90;;;4.97;;
14139;SDS011;7150;53.514;9.988;2024-03-06T12:37:55;8.93;;;5.83;;
14139;SDS011;7150;53.514;9.988;2024-03-06T12:40:21;6.67;;;4.87;;
14139;SDS011;7150;53.514;9.988;2024-03-06T12:42:47;6.83;;;4.80;;
14139;SDS011;7150;53.514;9.988;2024-03-06T12:45:12;8.37;;;5.10;;
14139;SDS011;7150;53.514;9.988;2024-03-06T12:47:40;8.13;;;5.30;;
14139;SDS011;7150;53.514;9.988;2024-03-06T12:50:07;9.83;;;4.70;;
14139;SDS011;7150;53.514;9.988;2024-03-06T12:52:33;5.87;;;4.53;;
14139;SDS011;7150;53.514;9.988;2024-03-06T12:54:59;7.37;;;4.80;;
14139;SDS011;7150;53.514;9.988;2024-03-06T12:57:25;5.93;;;4.70;;
14139;SDS011;7150;53.514;9.988;2024-03-06T12:59:52;6.77;;;5.10;;
14139;SDS011;7150;53.514;9.988;2024-03-06T13:02:18;6.73;;;4.83;;
14139;SDS011;7150;53.514;9.988;2024-03-06T13:04:44;6.70;;;5.03;;
14139;SDS011;7150;53.514;9.988;2024-03-06T13:07:09;6.37;;;4.73;;
14139;SDS011;7150;53.514;9.988;2024-03-06T13:09:36;6.77;;;4.73;;
14139;SDS011;7150;53.514;9.988;2024-03-06T13:12:01;5.77;;;4.20;;
14139;SDS011;7150;53.514;9.988;2024-03-06T13:14:27;8.07;;;5.50;;
14139;SDS011;7150;53.514;9.988;2024-03-06T13:16:53;6.47;;;5.03;;
14139;SDS011;7150;53.514;9.988;2024-03-06T13:19:18;6.57;;;4.80;;
14139;SDS011;7150;53.514;9.988;2024-03-06T13:21:44;6.93;;;4.40;;
14139;SDS011;7150;53.514;9.988;2024-03-06T13:24:09;7.43;;;4.90;;
14139;SDS011;7150;53.514;9.988;2024-03-06T13:26:35;8.60;;;4.70;;
14139;SDS011;7150;53.514;9.988;2024-03-06T13:29:02;6.87;;;4.07;;
14139;SDS011;7150;53.514;9.988;2024-03-06T13:31:28;5.73;;;4.47;;
14139;SDS011;7150;53.514;9.988;2024-03-06T13:33:55;6.33;;;4.27;;
14139;SDS011;7150;53.514;9.988;2024-03-06T13:36:20;7.00;;;4.23;;
14139;SDS011;7150;53.514;9.988;2024-03-06T13:38:47;6.80;;;4.47;;
14139;SDS011;7150;53.514;9.988;2024-03-06T13:41:12;7.17;;;4.80;;
14139;SDS011;7150;53.514;9.988;2024-03-06T13:43:38;5.87;;;4.30;;
14139;SDS011;7150;53.514;9.988;2024-03-06T13:46:03;7.07;;;4.70;;
14139;SDS011;7150;53.514;9.988;2024-03-06T13:48:29;6.50;;;4.70;;
14139;SDS011;7150;53.514;9.988;2024-03-06T13:50:55;6.10;;;4.43;;
14139;SDS011;7150;53.514;9.988;2024-03-06T13:53:20;5.97;;;4.23;;
14139;SDS011;7150;53.514;9.988;2024-03-06T13:55:46;6.13;;;4.47;;
14139;SDS011;7150;53.514;9.988;2024-03-06T13:58:11;7.33;;;5.00;;
14139;SDS011;7150;53.514;9.988;2024-03-06T14:00:37;6.70;;;4.30;;
14139;SDS011;7150;53.514;9.988;2024-03-06T14:03:02;8.27;;;4.63;;
14139;SDS011;7150;53.514;9.988;2024-03-06T14:05:28;7.00;;;4.80;;
14139;SDS011;7150;53.514;9.988;2024-03-06T14:07:54;5.83;;;4.80;;
14139;SDS011;7150;53.514;9.988;2024-03-06T14:10:20;6.20;;;4.73;;
14139;SDS011;7150;53.514;9.988;2024-03-06T14:12:48;7.40;;;5.50;;
14139;SDS011;7150;53.514;9.988;2024-03-06T14:15:16;6.87;;;5.00;;
14139;SDS011;7150;53.514;9.988;2024-03-06T14:17:44;7.37;;;4.83;;
14139;SDS011;7150;53.514;9.988;2024-03-06T14:20:11;6.83;;;4.93;;
14139;SDS011;7150;53.514;9.988;2024-03-06T14:22:40;6.93;;;4.90;;
14139;SDS011;7150;53.514;9.988;2024-03-06T14:25:07;5.80;;;4.60;;
14139;SDS011;7150;53.514;9.988;2024-03-06T14:27:33;8.23;;;5.17;;
14139;SDS011;7150;53.514;9.988;2024-03-06T14:30:00;6.53;;;4.73;;
14139;SDS011;7150;53.514;9.988;2024-03-06T14:32:28;5.27;;;4.07;;
14139;SDS011;7150;53.514;9.988;2024-03-06T14:34:53;5.07;;;4.10;;
14139;SDS011;7150;53.514;9.988;2024-03-06T14:37:19;5.27;;;3.87;;
14139;SDS011;7150;53.514;9.988;2024-03-06T14:39:44;7.33;;;4.70;;
14139;SDS011;7150;53.514;9.988;2024-03-06T14:42:10;7.07;;;4.30;;
14139;SDS011;7150;53.514;9.988;2024-03-06T14:44:36;6.37;;;4.30;;
14139;SDS011;7150;53.514;9.988;2024-03-06T14:47:02;5.87;;;4.37;;
14139;SDS011;7150;53.514;9.988;2024-03-06T14:49:27;5.30;;;3.83;;
14139;SDS011;7150;53.514;9.988;2024-03-06T14:51:53;6.00;;;4.23;;
14139;SDS011;7150;53.514;9.988;2024-03-06T14:54:20;6.63;;;4.23;;
14139;SDS011;7150;53.514;9.988;2024-03-06T14:56:48;6.90;;;4.50;;
14139;SDS011;7150;53.514;9.988;2024-03-06T14:59:13;7.00;;;4.90;;
14139;SDS011;7150;53.514;9.988;2024-03-06T15:01:39;7.03;;;4.70;;
14139;SDS011;7150;53.514;9.988;2024-03-06T15:04:04;4.97;;;3.83;;
14139;SDS011;7150;53.514;9.988;2024-03-06T15:06:30;4.93;;;3.70;;
14139;SDS011;7150;53.514;9.988;2024-03-06T15:08:55;6.07;;;4.07;;
14139;SDS011;7150;53.514;9.988;2024-03-06T15:11:21;4.63;;;3.90;;
14139;SDS011;7150;53.514;9.988;2024-03-06T15:13:48;6.40;;;4.10;;